Time;durP1;ratioP1;P1;durP2;ratioP2;P2;SDS_P1;SDS_P2;PMS_P1;PMS_P2;Temp;Humidity;BMP_temperature;BMP_pressure;BME280_temperature;BME280_humidity;BME280_pressure;Samples;Min_cycle;Max_cycle;Signal;HPM_P1;HPM_P2
2024/02/06 00:01:52;;;;;;;2.20;0.90;;;20.70;51.00;;;;;;5076674;28;20054;-63
2024/02/06 00:04:18;;;;;;;1.70;0.82;;;20.70;51.50;;;;;;5077564;28;20034;-64
2024/02/06 00:06:44;;;;;;;1.98;0.98;;;20.70;51.00;;;;;;5077638;28;20024;-63
2024/02/06 00:09:10;;;;;;;1.40;0.90;;;20.70;51.50;;;;;;5079223;28;20784;-63
2024/02/06 00:11:37;;;;;;;2.95;1.10;;;20.70;51.00;;;;;;5077668;28;20060;-63
2024/02/06 00:14:03;;;;;;;1.55;0.93;;;20.70;51.00;;;;;;5079556;28;20471;-62
2024/02/06 00:16:28;;;;;;;1.80;1.10;;;20.70;51.00;;;;;;5081754;28;20024;-63
2024/02/06 00:18:54;;;;;;;2.10;1.00;;;20.70;51.00;;;;;;5081041;28;20028;-63
2024/02/06 00:21:20;;;;;;;1.20;0.90;;;20.70;51.00;;;;;;5080752;28;20040;-64
2024/02/06 00:23:45;;;;;;;1.48;1.00;;;20.70;51.50;;;;;;5083158;28;20024;-63
2024/02/06 00:26:11;;;;;;;1.38;0.98;;;20.60;50.90;;;;;;5097463;28;20070;-63
2024/02/06 00:28:37;;;;;;;1.92;0.80;;;20.70;51.00;;;;;;5082158;28;20047;-63
2024/02/06 00:31:03;;;;;;;2.15;1.08;;;20.70;51.00;;;;;;5082288;28;20047;-63
2024/02/06 00:33:28;;;;;;;1.27;0.82;;;20.70;51.00;;;;;;5081923;28;20025;-64
2024/02/06 00:35:54;;;;;;;1.30;1.00;;;20.70;51.00;;;;;;5079301;28;20103;-63
2024/02/06 00:38:20;;;;;;;1.88;1.10;;;20.60;50.90;;;;;;5080681;28;20032;-64
2024/02/06 00:40:45;;;;;;;2.10;0.90;;;20.60;50.90;;;;;;5082389;28;20020;-64
2024/02/06 00:43:11;;;;;;;1.38;0.77;;;20.60;50.80;;;;;;5081590;28;20107;-64
2024/02/06 00:45:37;;;;;;;1.35;0.85;;;20.60;50.80;;;;;;5079891;28;20024;-64
2024/02/06 00:48:03;;;;;;;1.50;0.90;;;20.60;50.90;;;;;;5080244;28;20745;-64
2024/02/06 00:50:29;;;;;;;2.13;1.00;;;20.60;50.80;;;;;;5078169;28;20021;-68
2024/02/06 00:52:54;;;;;;;1.88;0.98;;;20.60;50.90;;;;;;5082588;28;20020;-67
2024/02/06 00:55:20;;;;;;;1.60;0.98;;;20.60;50.90;;;;;;5080341;28;20035;-67
2024/02/06 00:57:46;;;;;;;1.48;0.90;;;20.60;50.90;;;;;;5080805;28;20602;-68
2024/02/06 01:00:12;;;;;;;1.08;0.80;;;20.60;50.80;;;;;;5081210;28;20383;-67
2024/02/06 01:02:37;;;;;;;2.50;1.00;;;20.60;50.90;;;;;;5062681;28;20475;-68
2024/02/06 01:05:03;;;;;;;1.75;1.05;;;20.60;50.90;;;;;;5080817;28;20035;-67
2024/02/06 01:07:29;;;;;;;1.50;0.90;;;20.60;50.80;;;;;;5080865;28;20630;-67
2024/02/06 01:09:55;;;;;;;1.55;0.90;;;20.60;50.80;;;;;;5081637;28;20028;-68
2024/02/06 01:12:21;;;;;;;1.60;0.80;;;20.60;50.80;;;;;;5080184;28;20025;-67
2024/02/06 01:14:47;;;;;;;2.08;1.05;;;20.60;50.80;;;;;;5080682;28;20369;-67
2024/02/06 01:17:12;;;;;;;1.40;0.80;;;20.60;50.80;;;;;;5061694;28;20035;-67
2024/02/06 01:19:38;;;;;;;1.00;0.70;;;20.60;50.90;;;;;;5080488;28;20046;-67
2024/02/06 01:22:06;;;;;;;1.52;0.93;;;20.60;51.40;;;;;;5080857;28;20403;-66
2024/02/06 01:24:32;;;;;;;1.30;0.93;;;20.60;50.80;;;;;;5082217;28;20441;-67
2024/02/06 01:26:59;;;;;;;1.52;0.80;;;20.60;50.80;;;;;;5080315;28;20028;-67
2024/02/06 01:29:25;;;;;;;2.20;1.00;;;20.60;50.80;;;;;;5079429;28;20116;-67
2024/02/06 01:31:51;;;;;;;1.80;0.90;;;20.60;50.80;;;;;;5080529;28;20120;-67
2024/02/06 01:34:16;;;;;;;1.23;0.90;;;20.60;50.80;;;;;;5060637;28;20489;-67
2024/02/06 01:36:42;;;;;;;1.20;0.80;;;20.60;50.80;;;;;;5093696;28;20552;-67
2024/02/06 01:39:08;;;;;;;0.90;0.70;;;20.60;50.80;;;;;;5078123;28;20074;-67
2024/02/06 01:41:33;;;;;;;1.25;0.82;;;20.60;50.80;;;;;;5080617;28;20424;-68
2024/02/06 01:43:59;;;;;;;1.58;0.90;;;20.50;50.80;;;;;;5060815;28;20345;-67
2024/02/06 01:46:27;;;;;;;1.63;0.90;;;20.60;50.80;;;;;;5079495;28;20027;-68
2024/02/06 01:48:54;;;;;;;1.45;0.85;;;20.60;50.80;;;;;;5080533;28;20032;-63
2024/02/06 01:51:21;;;;;;;1.70;1.00;;;20.60;50.80;;;;;;5079891;28;20035;-63
2024/02/06 01:53:48;;;;;;;1.30;0.85;;;20.50;50.80;;;;;;5078736;28;20044;-62
2024/02/06 01:56:15;;;;;;;2.03;1.00;;;20.50;50.80;;;;;;5079702;28;20024;-64
2024/02/06 01:58:40;;;;;;;1.20;0.80;;;20.50;50.80;;;;;;5075527;28;20067;-64
2024/02/06 02:01:06;;;;;;;2.22;0.90;;;20.60;50.80;;;;;;5080817;28;20456;-64
2024/02/06 02:03:33;;;;;;;1.77;0.80;;;20.50;50.80;;;;;;5079020;28;20047;-64
2024/02/06 02:06:03;;;;;;;1.63;0.90;;;20.60;50.80;;;;;;5077669;28;20024;-64
2024/02/06 02:08:33;;;;;;;2.08;1.00;;;20.60;50.80;;;;;;5079361;28;20040;-64
2024/02/06 02:10:58;;;;;;;1.27;0.75;;;20.60;50.80;;;;;;5081416;28;20094;-64
2024/02/06 02:13:25;;;;;;;1.65;1.00;;;20.60;50.90;;;;;;5080601;28;20036;-64
2024/02/06 02:15:51;;;;;;;1.30;0.90;;;20.60;50.80;;;;;;5078652;28;20079;-64
2024/02/06 02:18:17;;;;;;;1.25;0.80;;;20.60;50.80;;;;;;5082114;28;20567;-64
2024/02/06 02:20:42;;;;;;;1.58;0.90;;;20.50;50.80;;;;;;5077018;28;20031;-64
2024/02/06 02:23:08;;;;;;;0.95;0.80;;;20.60;50.90;;;;;;5078526;28;20033;-64
2024/02/06 02:25:34;;;;;;;2.22;1.00;;;20.50;50.80;;;;;;5077241;28;20059;-64
2024/02/06 02:28:01;;;;;;;1.60;0.90;;;20.50;50.80;;;;;;5079298;28;20539;-64
2024/02/06 02:30:27;;;;;;;1.08;0.85;;;20.50;50.80;;;;;;5080908;28;20519;-64
2024/02/06 02:32:55;;;;;;;1.48;0.90;;;20.50;50.80;;;;;;5077666;28;20033;-64
2024/02/06 02:35:28;;;;;;;1.55;0.80;;;20.50;50.80;;;;;;5079168;28;20365;-64
2024/02/06 02:37:54;;;;;;;1.15;0.80;;;20.50;50.80;;;;;;5078051;28;20408;-64
2024/02/06 02:40:20;;;;;;;1.60;0.80;;;20.50;50.80;;;;;;5078079;28;20028;-64
2024/02/06 02:42:45;;;;;;;1.15;0.80;;;20.50;50.80;;;;;;5070289;28;20028;-64
2024/02/06 02:45:11;;;;;;;1.00;0.80;;;20.50;50.80;;;;;;5079605;28;20032;-64
2024/02/06 02:47:36;;;;;;;1.27;0.90;;;20.50;50.80;;;;;;5081341;28;20487;-64
2024/02/06 02:50:03;;;;;;;1.55;0.80;;;20.50;50.80;;;;;;5078274;28;20017;-64
2024/02/06 02:52:28;;;;;;;1.48;1.00;;;20.50;50.70;;;;;;5077920;28;20028;-64
2024/02/06 02:54:54;;;;;;;2.03;1.05;;;20.50;50.80;;;;;;5082185;28;20027;-64
2024/02/06 02:57:19;;;;;;;1.85;0.93;;;20.50;50.80;;;;;;5079929;28;20472;-64
2024/02/06 02:59:45;;;;;;;0.95;0.70;;;20.50;50.80;;;;;;5078114;28;20024;-62
2024/02/06 03:02:11;;;;;;;2.40;0.98;;;20.50;50.80;;;;;;5080043;28;20027;-62
2024/02/06 03:04:37;;;;;;;1.40;0.80;;;20.50;50.70;;;;;;5079564;28;20028;-62
2024/02/06 03:07:04;;;;;;;1.63;0.90;;;20.50;50.80;;;;;;5078943;28;20488;-61
2024/02/06 03:09:30;;;;;;;1.17;0.90;;;20.50;50.80;;;;;;5079661;28;20020;-64
2024/02/06 03:11:55;;;;;;;1.15;0.80;;;20.50;50.80;;;;;;5078967;28;20380;-64
2024/02/06 03:14:21;;;;;;;1.00;0.80;;;20.50;50.80;;;;;;5077166;28;20028;-63
2024/02/06 03:16:47;;;;;;;2.83;0.73;;;20.50;50.80;;;;;;5068760;28;20502;-64
2024/02/06 03:19:13;;;;;;;1.00;0.80;;;20.50;50.80;;;;;;5077716;28;20032;-64
2024/02/06 03:21:38;;;;;;;1.50;0.80;;;20.50;51.30;;;;;;5076122;28;20461;-64
2024/02/06 03:24:05;;;;;;;1.17;0.80;;;20.50;50.80;;;;;;5079263;28;20363;-64
2024/02/06 03:26:30;;;;;;;1.20;0.80;;;20.50;50.80;;;;;;5079806;28;20078;-64
2024/02/06 03:28:56;;;;;;;1.25;0.80;;;20.50;50.80;;;;;;5076625;28;20561;-64
2024/02/06 03:31:22;;;;;;;1.23;0.80;;;20.50;50.80;;;;;;5075683;28;20150;-64
2024/02/06 03:33:48;;;;;;;2.22;0.90;;;20.50;50.80;;;;;;5078416;28;20133;-64
2024/02/06 03:36:14;;;;;;;1.23;0.80;;;20.50;50.80;;;;;;5078465;28;20021;-64
2024/02/06 03:38:39;;;;;;;1.75;0.90;;;20.50;50.80;;;;;;5079397;28;20035;-64
2024/02/06 03:41:05;;;;;;;1.13;0.82;;;20.50;50.80;;;;;;5078370;28;20032;-64
2024/02/06 03:43:31;;;;;;;1.45;0.90;;;20.50;50.70;;;;;;5079282;28;20393;-64
2024/02/06 03:45:56;;;;;;;1.48;0.80;;;20.50;50.80;;;;;;5076525;28;20025;-64
2024/02/06 03:48:22;;;;;;;1.13;0.90;;;20.50;50.80;;;;;;5080283;28;20413;-64
2024/02/06 03:50:47;;;;;;;1.25;0.88;;;20.50;50.80;;;;;;5082032;28;20031;-64
2024/02/06 03:53:13;;;;;;;1.70;0.90;;;20.50;50.90;;;;;;5080285;28;20051;-64
2024/02/06 03:55:39;;;;;;;1.52;0.85;;;20.50;50.80;;;;;;5080583;28;20111;-64
2024/02/06 03:58:04;;;;;;;1.00;0.70;;;20.50;51.30;;;;;;5083184;28;20036;-64
2024/02/06 04:00:30;;;;;;;1.33;0.90;;;20.50;50.80;;;;;;5082666;28;20028;-64
2024/02/06 04:02:56;;;;;;;0.98;0.80;;;20.50;51.30;;;;;;5083781;28;20031;-64
2024/02/06 04:05:22;;;;;;;1.08;0.80;;;20.50;51.30;;;;;;5083423;28;20476;-64
2024/02/06 04:07:47;;;;;;;1.45;0.80;;;20.50;50.90;;;;;;5083347;28;20035;-64
2024/02/06 04:10:13;;;;;;;0.88;0.70;;;20.50;50.80;;;;;;5083127;28;20028;-63
2024/02/06 04:12:39;;;;;;;1.27;0.70;;;20.50;50.90;;;;;;5079676;28;20950;-63
2024/02/06 04:15:06;;;;;;;1.08;0.70;;;20.50;50.90;;;;;;5080827;28;20036;-61
2024/02/06 04:17:32;;;;;;;1.70;0.80;;;20.40;50.80;;;;;;5083274;28;20025;-62
2024/02/06 04:19:58;;;;;;;1.35;0.80;;;20.50;50.90;;;;;;5082061;28;20035;-66
2024/02/06 04:22:24;;;;;;;2.22;1.05;;;20.50;50.90;;;;;;5080161;28;20035;-66
2024/02/06 04:24:50;;;;;;;1.33;0.80;;;20.40;50.80;;;;;;5081429;28;20060;-66
2024/02/06 04:27:15;;;;;;;1.08;0.70;;;20.40;50.80;;;;;;5082853;28;20488;-66
2024/02/06 04:29:41;;;;;;;1.05;0.80;;;20.50;50.80;;;;;;5081002;28;20107;-67
2024/02/06 04:32:07;;;;;;;0.95;0.80;;;20.40;50.80;;;;;;5080525;28;20078;-66
2024/02/06 04:34:33;;;;;;;1.50;0.88;;;20.40;50.80;;;;;;5078988;28;20114;-68
2024/02/06 04:36:59;;;;;;;0.93;0.70;;;20.40;50.80;;;;;;5080372;28;20127;-67
2024/02/06 04:39:24;;;;;;;1.33;0.80;;;20.40;50.80;;;;;;5081557;28;20036;-66
2024/02/06 04:41:52;;;;;;;1.17;0.73;;;20.40;50.70;;;;;;5080416;28;20485;-66
2024/02/06 04:44:17;;;;;;;1.20;0.80;;;20.40;50.80;;;;;;5080956;28;20033;-67
2024/02/06 04:46:43;;;;;;;1.25;0.80;;;20.40;50.80;;;;;;5098815;28;20471;-67
2024/02/06 04:49:09;;;;;;;1.55;0.80;;;20.40;50.90;;;;;;5078954;28;20121;-67
2024/02/06 04:51:36;;;;;;;1.10;0.80;;;20.50;51.00;;;;;;5079694;28;20414;-67
2024/02/06 04:54:05;;;;;;;1.27;0.90;;;20.50;51.00;;;;;;5081373;28;20056;-66
2024/02/06 04:56:32;;;;;;;1.58;0.82;;;20.50;50.90;;;;;;5081263;28;20074;-65
2024/02/06 04:58:57;;;;;;;2.15;0.80;;;20.50;50.90;;;;;;5081789;28;20460;-67
2024/02/06 05:01:23;;;;;;;0.90;0.80;;;20.50;50.90;;;;;;5080170;28;20020;-66
2024/02/06 05:03:48;;;;;;;1.50;0.90;;;20.50;50.80;;;;;;5079732;28;20028;-68
2024/02/06 05:06:14;;;;;;;1.02;0.73;;;20.50;50.80;;;;;;5080642;28;20055;-67
2024/02/06 05:08:40;;;;;;;1.20;0.80;;;20.50;50.80;;;;;;5076646;28;20036;-67
2024/02/06 05:11:06;;;;;;;1.27;0.82;;;20.50;50.80;;;;;;5082106;28;20032;-66
2024/02/06 05:13:32;;;;;;;1.23;0.80;;;20.50;50.80;;;;;;5084081;28;20020;-67
2024/02/06 05:15:58;;;;;;;1.92;0.93;;;20.50;50.80;;;;;;5080920;28;20028;-68
2024/02/06 05:18:23;;;;;;;1.48;0.90;;;20.50;50.90;;;;;;5071176;28;20058;-67
2024/02/06 05:20:49;;;;;;;1.25;0.70;;;20.50;50.90;;;;;;5080090;28;20116;-63
2024/02/06 05:23:15;;;;;;;1.70;1.00;;;20.50;50.80;;;;;;5080469;28;20068;-63
2024/02/06 05:25:43;;;;;;;1.80;0.95;;;20.40;50.80;;;;;;5079894;28;20036;-62
2024/02/06 05:28:09;;;;;;;1.73;0.80;;;20.50;50.90;;;;;;5078213;28;20929;-62
2024/02/06 05:30:36;;;;;;;1.50;0.80;;;20.50;50.90;;;;;;5080345;28;20029;-64
2024/02/06 05:33:05;;;;;;;2.00;0.80;;;20.40;50.90;;;;;;5078601;28;20484;-64
2024/02/06 05:35:30;;;;;;;1.83;0.90;;;20.50;50.90;;;;;;5077780;28;20028;-64
2024/02/06 05:37:59;;;;;;;1.90;0.90;;;20.40;50.90;;;;;;5078899;28;20043;-64
2024/02/06 05:40:24;;;;;;;1.27;0.80;;;20.40;50.90;;;;;;5079447;28;20028;-64
2024/02/06 05:42:50;;;;;;;2.65;1.05;;;20.40;50.90;;;;;;5082088;28;20441;-64
2024/02/06 05:45:16;;;;;;;2.88;1.10;;;20.40;50.90;;;;;;5079706;28;20042;-64
2024/02/06 05:47:41;;;;;;;1.95;1.20;;;20.40;50.90;;;;;;5082193;28;20387;-64
2024/02/06 05:50:09;;;;;;;1.92;1.02;;;20.40;50.90;;;;;;5078321;28;20365;-63
2024/02/06 05:52:35;;;;;;;2.30;1.10;;;20.40;51.00;;;;;;5077075;28;20023;-63
2024/02/06 05:55:01;;;;;;;1.52;0.95;;;20.40;51.40;;;;;;5078606;28;20032;-63
2024/02/06 05:57:27;;;;;;;2.42;1.02;;;20.40;51.00;;;;;;5079663;28;20055;-63
2024/02/06 05:59:53;;;;;;;1.77;1.00;;;20.40;51.00;;;;;;5080694;28;20035;-64
2024/02/06 06:02:18;;;;;;;2.25;1.10;;;20.40;51.00;;;;;;5078345;28;20535;-63
2024/02/06 06:04:46;;;;;;;1.70;0.90;;;20.40;51.50;;;;;;5080590;28;20028;-63
2024/02/06 06:07:12;;;;;;;2.50;1.10;;;20.40;50.90;;;;;;5078942;28;20023;-63
2024/02/06 06:09:37;;;;;;;1.85;0.80;;;20.40;51.00;;;;;;5076646;28;20029;-64
2024/02/06 06:12:03;;;;;;;2.25;1.02;;;20.40;51.00;;;;;;5078008;28;20064;-63
2024/02/06 06:14:29;;;;;;;2.42;1.20;;;20.40;51.00;;;;;;5079431;28;20495;-63
2024/02/06 06:16:55;;;;;;;1.83;1.02;;;20.40;51.00;;;;;;5080583;28;20028;-64
2024/02/06 06:19:20;;;;;;;2.28;1.27;;;20.40;51.00;;;;;;5079225;28;20055;-63
2024/02/06 06:21:46;;;;;;;3.22;1.27;;;20.40;51.00;;;;;;5062349;28;20088;-63
2024/02/06 06:24:12;;;;;;;2.65;1.10;;;20.40;51.10;;;;;;5078914;28;20448;-63
2024/02/06 06:26:40;;;;;;;2.72;1.00;;;20.40;51.10;;;;;;5078338;28;20021;-64
2024/02/06 06:29:08;;;;;;;2.35;1.20;;;20.40;51.10;;;;;;5079436;28;20043;-61
2024/02/06 06:31:34;;;;;;;2.78;1.20;;;20.40;51.10;;;;;;5079928;28;20158;-63
2024/02/06 06:34:00;;;;;;;3.17;1.50;;;20.40;51.00;;;;;;5078381;28;20145;-62
2024/02/06 06:36:26;;;;;;;2.85;1.38;;;20.50;51.00;;;;;;5080812;28;20039;-62
2024/02/06 06:38:54;;;;;;;3.25;1.30;;;20.50;51.00;;;;;;5079274;28;20108;-63
2024/02/06 06:41:22;;;;;;;2.20;1.13;;;20.40;50.90;;;;;;5081084;28;20028;-61
2024/02/06 06:43:48;;;;;;;2.72;1.02;;;20.40;50.90;;;;;;5077267;28;20012;-62
2024/02/06 06:46:13;;;;;;;2.83;1.10;;;20.50;51.00;;;;;;5070288;28;20384;-61
2024/02/06 06:48:39;;;;;;;2.22;1.10;;;20.50;51.00;;;;;;5079815;28;20078;-62
2024/02/06 06:51:05;;;;;;;2.72;1.20;;;20.40;50.90;;;;;;5077760;28;20399;-61
2024/02/06 06:53:30;;;;;;;3.00;1.20;;;20.40;50.90;;;;;;5078409;28;20028;-61
2024/02/06 06:55:56;;;;;;;2.53;1.20;;;20.40;50.90;;;;;;5079944;28;20098;-62
2024/02/06 06:58:21;;;;;;;2.35;1.10;;;20.40;50.90;;;;;;5077772;28;20078;-61
2024/02/06 07:00:47;;;;;;;3.15;1.15;;;20.40;51.00;;;;;;5080242;28;20464;-63
2024/02/06 07:03:13;;;;;;;2.65;1.20;;;20.40;50.90;;;;;;5079099;28;20040;-61
2024/02/06 07:05:39;;;;;;;2.03;1.15;;;20.40;50.90;;;;;;5080839;28;20094;-62
2024/02/06 07:08:05;;;;;;;5.05;1.23;;;20.40;51.00;;;;;;5078033;28;20464;-62
2024/02/06 07:10:31;;;;;;;2.25;1.30;;;20.40;50.90;;;;;;5078385;28;20388;-61
2024/02/06 07:12:56;;;;;;;2.45;1.20;;;20.40;50.90;;;;;;5081521;28;20024;-62
2024/02/06 07:15:22;;;;;;;2.55;1.00;;;20.40;50.90;;;;;;5080995;28;20024;-61
2024/02/06 07:17:48;;;;;;;3.00;1.17;;;20.40;51.00;;;;;;5078504;28;20016;-62
2024/02/06 07:20:14;;;;;;;2.25;1.25;;;20.40;50.90;;;;;;5077467;28;20028;-61
2024/02/06 07:22:40;;;;;;;1.90;1.10;;;20.40;50.90;;;;;;5076629;28;20043;-62
2024/02/06 07:25:06;;;;;;;2.00;1.00;;;20.40;50.90;;;;;;5075463;28;20024;-61
2024/02/06 07:27:32;;;;;;;1.73;0.93;;;20.40;50.90;;;;;;5076376;28;20035;-61
2024/02/06 07:30:00;;;;;;;2.10;1.10;;;20.40;50.90;;;;;;5077570;28;20035;-62
2024/02/06 07:32:26;;;;;;;2.97;1.20;;;20.40;50.90;;;;;;5078012;28;20479;-62
2024/02/06 07:34:51;;;;;;;3.30;1.17;;;20.40;50.90;;;;;;5079186;28;20028;-62
2024/02/06 07:37:17;;;;;;;1.77;0.90;;;20.40;50.80;;;;;;5077384;28;20107;-62
2024/02/06 07:39:43;;;;;;;3.92;1.30;;;20.40;50.80;;;;;;5076853;28;20054;-66
2024/02/06 07:42:08;;;;;;;3.55;1.20;;;20.40;50.80;;;;;;5079630;28;20032;-62
2024/02/06 07:44:34;;;;;;;1.95;1.15;;;20.40;50.80;;;;;;5078049;28;20078;-63
2024/02/06 07:47:00;;;;;;;3.20;1.33;;;20.40;50.80;;;;;;5078111;28;20052;-62
2024/02/06 07:49:25;;;;;;;3.20;1.48;;;20.40;50.80;;;;;;5077010;28;20366;-63
2024/02/06 07:51:51;;;;;;;3.22;1.40;;;20.40;50.80;;;;;;5080341;28;20032;-62
2024/02/06 07:54:17;;;;;;;2.63;1.23;;;20.40;50.80;;;;;;5077179;28;20036;-62
2024/02/06 07:56:42;;;;;;;2.45;1.20;;;20.40;50.90;;;;;;5077022;28;20127;-61
2024/02/06 07:59:11;;;;;;;2.40;1.13;;;20.40;50.90;;;;;;5079033;28;20032;-63
2024/02/06 08:01:38;;;;;;;2.10;1.10;;;20.40;50.80;;;;;;5079258;28;20021;-62
2024/02/06 08:04:07;;;;;;;2.40;1.00;;;20.40;50.80;;;;;;5079219;28;20097;-61
2024/02/06 08:06:33;;;;;;;2.85;1.02;;;20.40;50.70;;;;;;5080288;28;20052;-62
2024/02/06 08:08:59;;;;;;;2.13;1.20;;;20.40;50.70;;;;;;5078698;28;20458;-61
2024/02/06 08:11:25;;;;;;;2.15;1.30;;;20.40;50.70;;;;;;5079023;28;20380;-62
2024/02/06 08:13:51;;;;;;;1.90;1.05;;;20.50;50.70;;;;;;5076373;28;20028;-61
2024/02/06 08:16:17;;;;;;;2.58;1.40;;;20.40;51.10;;;;;;5077854;28;20477;-61
2024/02/06 08:18:43;;;;;;;2.70;1.27;;;20.40;50.70;;;;;;5079249;28;20081;-61
2024/02/06 08:21:09;;;;;;;2.42;1.35;;;20.40;50.70;;;;;;5078074;28;20040;-62
2024/02/06 08:23:34;;;;;;;2.47;1.15;;;20.40;50.70;;;;;;5076682;28;20081;-61
2024/02/06 08:26:00;;;;;;;2.70;1.10;;;20.40;50.70;;;;;;5077582;28;20024;-61
2024/02/06 08:28:25;;;;;;;2.25;1.20;;;20.40;50.70;;;;;;5077714;28;20028;-62
2024/02/06 08:30:51;;;;;;;2.47;1.20;;;20.40;51.20;;;;;;5077471;28;20020;-61
2024/02/06 08:33:17;;;;;;;2.25;1.20;;;20.40;50.70;;;;;;5076384;28;20028;-63
2024/02/06 08:35:43;;;;;;;2.47;1.10;;;20.40;50.70;;;;;;5081127;28;20032;-62
2024/02/06 08:38:09;;;;;;;2.05;1.08;;;20.40;51.20;;;;;;5071567;28;20447;-62
2024/02/06 08:40:34;;;;;;;2.42;1.15;;;20.40;50.70;;;;;;5082348;28;20036;-61
2024/02/06 08:43:01;;;;;;;3.17;1.45;;;20.40;50.70;;;;;;5080044;28;20032;-61
2024/02/06 08:45:27;;;;;;;1.98;1.20;;;20.40;50.70;;;;;;5081580;28;20020;-61
2024/02/06 08:47:52;;;;;;;3.45;1.30;;;20.40;50.70;;;;;;5078273;28;20822;-61
2024/02/06 08:50:18;;;;;;;2.88;1.38;;;20.40;50.70;;;;;;5081902;28;20036;-66
2024/02/06 08:52:43;;;;;;;2.58;1.30;;;20.40;50.70;;;;;;5081469;28;20465;-66
2024/02/06 08:55:09;;;;;;;3.55;1.52;;;20.30;50.70;;;;;;5077625;28;20064;-66
2024/02/06 08:57:36;;;;;;;3.45;1.40;;;20.30;50.70;;;;;;5082312;28;20490;-66
2024/02/06 09:00:07;;;;;;;2.70;1.50;;;20.30;50.70;;;;;;5080311;28;20025;-66
2024/02/06 09:02:33;;;;;;;2.47;1.23;;;20.30;50.70;;;;;;5081463;28;20032;-66
2024/02/06 09:04:59;;;;;;;2.72;1.45;;;20.30;50.70;;;;;;5080459;28;20094;-67
2024/02/06 09:07:24;;;;;;;1.73;1.13;;;20.30;50.70;;;;;;5080602;28;20086;-67
2024/02/06 09:09:52;;;;;;;2.30;0.95;;;20.30;50.70;;;;;;5069390;28;20024;-66
2024/02/06 09:12:17;;;;;;;2.22;1.13;;;20.30;50.70;;;;;;5080433;28;20086;-67
2024/02/06 09:14:43;;;;;;;2.53;1.40;;;20.30;50.70;;;;;;5079558;28;20028;-66
2024/02/06 09:17:09;;;;;;;2.20;1.25;;;20.30;50.70;;;;;;5082595;28;20063;-66
2024/02/06 09:19:35;;;;;;;2.88;1.48;;;20.30;50.90;;;;;;5080930;28;20198;-66
2024/02/06 09:22:01;;;;;;;2.33;1.27;;;20.30;50.70;;;;;;5082382;28;20196;-68
2024/02/06 09:24:26;;;;;;;2.05;1.20;;;20.30;50.70;;;;;;5069704;28;20082;-66
2024/02/06 09:26:54;;;;;;;2.50;1.35;;;20.30;50.70;;;;;;5079776;28;20031;-67
2024/02/06 09:29:20;;;;;;;2.13;1.20;;;20.30;50.70;;;;;;5081564;28;20476;-67
2024/02/06 09:31:47;;;;;;;2.63;1.10;;;20.30;50.70;;;;;;5080172;28;20102;-67
2024/02/06 09:34:13;;;;;;;1.80;1.00;;;20.30;50.70;;;;;;5081355;28;20437;-67
2024/02/06 09:36:38;;;;;;;2.38;1.20;;;20.30;50.70;;;;;;5081439;28;20101;-67
2024/02/06 09:39:06;;;;;;;1.98;1.17;;;20.30;50.70;;;;;;5079123;28;20531;-67
2024/02/06 09:41:36;;;;;;;1.95;1.15;;;20.30;50.70;;;;;;5080742;28;20499;-66
2024/02/06 09:44:03;;;;;;;2.13;1.00;;;20.40;50.70;;;;;;5079551;28;20017;-67
2024/02/06 09:46:29;;;;;;;1.90;1.10;;;20.40;50.80;;;;;;5076753;28;20095;-66
2024/02/06 09:48:56;;;;;;;2.42;1.20;;;20.40;50.70;;;;;;5079634;28;20535;-68
2024/02/06 09:51:24;;;;;;;1.85;0.98;;;20.40;50.70;;;;;;5076651;28;20021;-67
2024/02/06 09:53:52;;;;;;;2.78;1.30;;;20.40;50.70;;;;;;5079064;28;20077;-66
2024/02/06 09:56:19;;;;;;;2.42;1.17;;;20.40;50.70;;;;;;5080181;28;20024;-68
2024/02/06 09:58:45;;;;;;;2.05;1.10;;;20.30;50.60;;;;;;5080688;28;20081;-66
2024/02/06 10:01:12;;;;;;;2.20;1.10;;;20.30;50.60;;;;;;5082729;28;20440;-62
2024/02/06 10:03:40;;;;;;;2.50;1.40;;;20.30;50.60;;;;;;5078510;28;20499;-62
2024/02/06 10:06:10;;;;;;;3.20;1.38;;;20.30;50.60;;;;;;5079306;28;20643;-62
2024/02/06 10:08:36;;;;;;;2.63;1.40;;;20.30;50.60;;;;;;5078892;28;20024;-62
2024/02/06 10:11:03;;;;;;;2.17;1.20;;;20.30;50.60;;;;;;5077379;28;20105;-64
2024/02/06 10:13:29;;;;;;;2.10;1.13;;;20.30;50.60;;;;;;5079131;28;20024;-64
2024/02/06 10:15:54;;;;;;;2.20;1.00;;;20.30;50.60;;;;;;5079324;28;20031;-64
2024/02/06 10:18:20;;;;;;;3.00;1.50;;;20.30;50.60;;;;;;5077828;28;20100;-64
2024/02/06 10:20:47;;;;;;;1.65;1.00;;;20.30;50.60;;;;;;5078815;28;20032;-64
2024/02/06 10:23:18;;;;;;;2.20;1.10;;;20.30;50.60;;;;;;5080518;28;20036;-64
2024/02/06 10:25:44;;;;;;;2.10;1.10;;;20.30;50.60;;;;;;5094873;28;20044;-64
2024/02/06 10:28:18;;;;;;;2.30;1.27;;;20.30;51.10;;;;;;5081622;28;20878;-64
2024/02/06 10:30:43;;;;;;;1.73;1.10;;;20.30;50.60;;;;;;5072217;28;20029;-64
2024/02/06 10:33:14;;;;;;;2.05;1.20;;;20.30;50.60;;;;;;5077809;28;20051;-64
2024/02/06 10:35:40;;;;;;;1.80;1.00;;;20.30;50.60;;;;;;5079449;28;20036;-64
2024/02/06 10:38:12;;;;;;;2.78;1.27;;;20.30;50.60;;;;;;5081408;28;20031;-64
2024/02/06 10:40:45;;;;;;;1.98;1.10;;;20.30;50.60;;;;;;5079175;28;20470;-64
2024/02/06 10:43:11;;;;;;;2.22;1.27;;;20.30;50.60;;;;;;5078790;28;20404;-64
2024/02/06 10:45:37;;;;;;;1.67;1.20;;;20.30;50.60;;;;;;5079350;28;20032;-64
2024/02/06 10:48:04;;;;;;;1.33;0.93;;;20.30;50.60;;;;;;5079254;28;20491;-64
2024/02/06 10:50:31;;;;;;;2.70;1.27;;;20.30;50.60;;;;;;5076643;28;20384;-64
2024/02/06 10:52:57;;;;;;;2.20;1.20;;;20.20;50.60;;;;;;5080212;28;20078;-64
2024/02/06 10:55:23;;;;;;;1.60;1.00;;;20.20;50.50;;;;;;5077492;28;20077;-64
2024/02/06 10:58:00;;;;;;;1.95;1.00;;;20.20;50.50;;;;;;5076205;28;20029;-64
2024/02/06 11:00:27;;;;;;;2.65;1.08;;;20.30;50.50;;;;;;5077983;28;20043;-64
2024/02/06 11:02:57;;;;;;;2.20;1.35;;;20.20;50.40;;;;;;5076411;28;20048;-64
2024/02/06 11:05:41;;;;;;;;;;;20.20;50.40;;;;;;5080673;28;20115;-64
2024/02/06 11:08:12;;;;;;;1.65;0.98;;;20.20;50.40;;;;;;5079775;28;20001;-64
2024/02/06 11:10:54;;;;;;;2.13;1.20;;;20.20;50.30;;;;;;5076493;28;20142;-65
2024/02/06 11:13:22;;;;;;;1.85;1.00;;;20.20;50.40;;;;;;5076870;28;20050;-64
2024/02/06 11:15:49;;;;;;;1.92;1.05;;;20.30;50.40;;;;;;5079099;28;20099;-65
2024/02/06 11:18:18;;;;;;;2.78;1.00;;;20.30;50.40;;;;;;5074282;28;20469;-65
2024/02/06 11:20:46;;;;;;;1.65;1.10;;;20.30;50.40;;;;;;5079168;28;20043;-68
2024/02/06 11:23:18;;;;;;;2.80;1.00;;;20.30;50.30;;;;;;5077004;28;20107;-63
2024/02/06 11:25:46;;;;;;;1.52;0.90;;;20.30;50.30;;;;;;5078946;28;20504;-62
2024/02/06 11:28:12;;;;;;;1.88;1.00;;;20.30;50.30;;;;;;5077314;28;20139;-63
2024/02/06 11:30:39;;;;;;;3.03;1.08;;;20.30;50.20;;;;;;5079061;28;20030;-61
2024/02/06 11:33:08;;;;;;;2.20;1.02;;;20.30;50.30;;;;;;5074723;28;20083;-62
2024/02/06 11:35:37;;;;;;;1.42;0.90;;;20.30;50.30;;;;;;5078566;28;20051;-62
2024/02/06 11:38:03;;;;;;;1.73;0.90;;;20.30;50.30;;;;;;5078296;28;20039;-63
2024/02/06 11:40:30;;;;;;;2.03;0.90;;;20.30;50.20;;;;;;5077695;28;20020;-61
2024/02/06 11:43:06;;;;;;;1.95;1.00;;;20.30;50.20;;;;;;5079323;28;20030;-63
2024/02/06 11:45:34;;;;;;;1.33;0.80;;;20.30;50.20;;;;;;5077983;28;20096;-63
2024/02/06 11:48:05;;;;;;;2.22;1.00;;;20.30;50.20;;;;;;5076968;28;20104;-61
2024/02/06 11:50:42;;;;;;;1.55;0.90;;;20.30;50.30;;;;;;5077077;28;20032;-62
2024/02/06 11:53:11;;;;;;;1.45;0.90;;;20.30;50.20;;;;;;5079241;28;20103;-63
2024/02/06 11:55:37;;;;;;;1.53;0.80;;;20.30;50.20;;;;;;5075978;28;20031;-61
2024/02/06 11:58:02;;;;;;;1.70;1.10;;;20.30;50.20;;;;;;5078320;28;20738;-62
2024/02/06 12:00:29;;;;;;;1.73;0.90;;;20.30;50.20;;;;;;5077753;28;20498;-63
2024/02/06 12:02:57;;;;;;;3.95;0.80;;;20.30;50.70;;;;;;5068728;28;20119;-61
2024/02/06 12:05:23;;;;;;;1.98;1.00;;;20.30;50.10;;;;;;5080089;28;20477;-62
2024/02/06 12:07:59;;;;;;;1.30;0.90;;;20.30;50.10;;;;;;5077510;28;20146;-62
2024/02/06 12:10:35;;;;;;;2.75;0.80;;;20.30;50.10;;;;;;5077269;28;20116;-61
2024/02/06 12:13:06;;;;;;;1.48;0.98;;;20.20;49.90;;;;;;5080680;28;20024;-61
2024/02/06 12:15:32;;;;;;;2.05;1.00;;;20.30;49.90;;;;;;5079922;28;20446;-62
2024/02/06 12:17:59;;;;;;;1.63;0.90;;;20.30;49.80;;;;;;5086020;28;20107;-62
2024/02/06 12:20:25;;;;;;;1.17;0.85;;;20.30;49.80;;;;;;5082792;28;20369;-61
2024/02/06 12:23:03;;;;;;;1.67;1.00;;;20.30;49.80;;;;;;5081915;28;20017;-61
2024/02/06 12:25:30;;;;;;;1.48;0.95;;;20.40;50.30;;;;;;5080540;28;20032;-61
2024/02/06 12:28:04;;;;;;;1.25;0.88;;;20.30;49.70;;;;;;5083172;28;20066;-61
2024/02/06 12:30:30;;;;;;;2.50;0.90;;;20.40;49.70;;;;;;5081048;28;20040;-62
2024/02/06 12:33:01;;;;;;;1.40;0.80;;;20.40;49.70;;;;;;5060855;28;20473;-69
2024/02/06 12:35:28;;;;;;;2.20;1.00;;;20.30;49.70;;;;;;5081636;28;20028;-68
2024/02/06 12:37:57;;;;;;;1.25;0.80;;;20.30;49.70;;;;;;5081439;28;20575;-67
2024/02/06 12:40:24;;;;;;;1.42;0.90;;;20.30;49.70;;;;;;5079954;28;20472;-67
2024/02/06 12:42:50;;;;;;;1.35;0.90;;;20.30;49.80;;;;;;5072623;28;20498;-67
2024/02/06 12:45:18;;;;;;;1.45;0.80;;;20.30;49.80;;;;;;5082322;28;20040;-67